createdAt,value
2023-02-12T00:01:41.246Z,11.20
2023-02-12T00:04:10.111Z,11.30
2023-02-12T00:06:40.472Z,11.40
2023-02-12T00:09:08.954Z,10.50
2023-02-12T00:11:38.950Z,10.40
2023-02-12T00:14:07.689Z,9.70
2023-02-12T00:16:37.711Z,10.30
2023-02-12T00:19:06.202Z,10.10
2023-02-12T00:21:35.776Z,9.40
2023-02-12T00:24:04.872Z,10.80
2023-02-12T00:26:33.899Z,9.40
2023-02-12T00:29:02.761Z,10.20
2023-02-12T00:31:31.799Z,9.50
2023-02-12T00:34:00.800Z,10.40
2023-02-12T00:36:30.641Z,10.20
2023-02-12T00:39:00.030Z,10.80
2023-02-12T00:41:28.639Z,10.70
2023-02-12T00:43:57.206Z,9.80
2023-02-12T00:46:25.919Z,10.00
2023-02-12T00:48:55.414Z,8.50
2023-02-12T00:51:24.489Z,9.30
2023-02-12T00:53:54.042Z,8.70
2023-02-12T00:56:23.134Z,9.20
2023-02-12T00:58:51.580Z,10.30
2023-02-12T01:01:20.173Z,8.40
2023-02-12T01:03:48.735Z,9.50
2023-02-12T01:06:17.528Z,9.30
2023-02-12T01:08:51.764Z,9.40
2023-02-12T01:11:20.654Z,8.70
2023-02-12T01:13:51.694Z,8.70
2023-02-12T01:16:23.113Z,8.50
2023-02-12T01:18:55.498Z,8.50
2023-02-12T01:21:29.661Z,9.60
2023-02-12T01:23:58.231Z,7.80
2023-02-12T01:26:26.922Z,7.70
2023-02-12T01:29:02.598Z,8.30
2023-02-12T01:31:33.064Z,8.20
2023-02-12T01:34:02.395Z,7.70
2023-02-12T01:36:32.875Z,8.20
2023-02-12T01:39:03.167Z,7.80
2023-02-12T01:41:36.573Z,7.40
2023-02-12T01:44:17.311Z,7.60
2023-02-12T01:49:32.561Z,6.60
2023-02-12T01:52:11.747Z,7.20
2023-02-12T01:54:41.321Z,7.30
2023-02-12T01:57:10.518Z,7.00
2023-02-12T01:59:41.087Z,7.50
2023-02-12T02:02:09.740Z,6.80
2023-02-12T02:04:45.968Z,6.70
2023-02-12T02:07:18.895Z,6.90
2023-02-12T02:09:47.753Z,6.80
2023-02-12T02:12:34.843Z,7.70
2023-02-12T02:15:05.697Z,7.30
2023-02-12T02:17:53.758Z,7.70
2023-02-12T02:20:43.119Z,6.90
2023-02-12T02:23:29.866Z,7.20
2023-02-12T02:26:16.644Z,6.60
2023-02-12T02:28:54.483Z,6.50
2023-02-12T02:31:38.398Z,7.00
2023-02-12T02:34:24.267Z,7.20
2023-02-12T02:37:00.909Z,7.10
2023-02-12T02:39:39.086Z,6.90
2023-02-12T02:42:11.861Z,7.90
2023-02-12T02:44:57.225Z,7.20
2023-02-12T02:47:31.700Z,7.30
2023-02-12T02:50:06.803Z,7.70
2023-02-12T02:52:52.786Z,7.10
2023-02-12T02:55:22.543Z,7.50
2023-02-12T02:58:03.273Z,7.00
2023-02-12T03:00:36.144Z,7.60
2023-02-12T03:03:43.924Z,8.10
2023-02-12T03:06:33.248Z,8.10
2023-02-12T03:09:10.141Z,8.00
2023-02-12T03:11:38.609Z,7.20
2023-02-12T03:14:17.650Z,7.60
2023-02-12T03:17:12.024Z,7.60
2023-02-12T03:19:47.152Z,7.10
2023-02-12T03:22:18.938Z,7.80
2023-02-12T03:24:51.807Z,8.30
2023-02-12T03:27:22.911Z,6.90
2023-02-12T03:29:51.891Z,7.40
2023-02-12T03:33:01.691Z,7.70
2023-02-12T03:35:36.147Z,7.70
2023-02-12T03:38:16.957Z,7.40
2023-02-12T03:41:17.159Z,7.90
2023-02-12T03:44:02.139Z,7.60
2023-02-12T03:46:39.647Z,7.90
2023-02-12T03:49:12.251Z,8.40
2023-02-12T03:51:42.169Z,8.00
2023-02-12T03:54:11.448Z,8.60
2023-02-12T03:56:45.835Z,7.50
2023-02-12T03:59:14.254Z,9.20
2023-02-12T04:01:43.113Z,7.60
2023-02-12T04:04:11.881Z,7.70
2023-02-12T04:06:41.953Z,7.70
2023-02-12T04:09:11.608Z,8.70
2023-02-12T04:11:59.076Z,7.90
2023-02-12T04:15:05.930Z,7.80
2023-02-12T04:17:59.633Z,8.80
2023-02-12T04:20:53.982Z,9.30
2023-02-12T04:23:33.857Z,8.50
2023-02-12T04:26:21.220Z,8.40
2023-02-12T04:28:57.345Z,8.70
2023-02-12T04:31:32.059Z,8.40
2023-02-12T04:34:10.420Z,8.30
2023-02-12T04:37:07.806Z,8.90
2023-02-12T04:39:37.897Z,8.70
2023-02-12T04:42:07.478Z,9.30
2023-02-12T04:44:42.169Z,9.40
2023-02-12T04:47:14.384Z,9.00
2023-02-12T04:49:43.440Z,9.10
2023-02-12T04:52:11.879Z,9.40
2023-02-12T04:54:40.366Z,10.10
2023-02-12T04:57:09.623Z,10.30
2023-02-12T04:59:39.336Z,9.80
2023-02-12T05:02:08.042Z,8.60
2023-02-12T05:04:37.266Z,8.90
2023-02-12T05:07:05.725Z,10.10
2023-02-12T05:09:34.171Z,9.00
2023-02-12T05:12:07.887Z,9.00
2023-02-12T05:14:36.517Z,9.60
2023-02-12T05:17:05.148Z,9.00
2023-02-12T05:19:37.598Z,9.50
2023-02-12T05:22:06.125Z,10.30
2023-02-12T05:24:34.592Z,10.40
2023-02-12T05:27:03.878Z,10.10
2023-02-12T05:29:32.512Z,9.60
2023-02-12T05:32:01.197Z,9.70
2023-02-12T05:34:30.161Z,9.20
2023-02-12T05:36:59.077Z,11.00
2023-02-12T05:39:27.708Z,10.20
2023-02-12T05:41:56.456Z,9.20
2023-02-12T05:44:24.907Z,10.40
2023-02-12T05:46:53.373Z,10.10
2023-02-12T05:49:21.801Z,11.70
2023-02-12T05:51:50.358Z,11.40
2023-02-12T05:54:19.318Z,10.90
2023-02-12T05:56:47.919Z,19.70
2023-02-12T05:59:18.995Z,12.90
2023-02-12T06:01:48.527Z,13.30
2023-02-12T06:04:19.534Z,13.20
2023-02-12T06:06:50.965Z,11.90
2023-02-12T06:09:19.713Z,11.00
2023-02-12T06:11:50.561Z,10.90
2023-02-12T06:14:20.262Z,10.90
2023-02-12T06:16:53.399Z,10.30
2023-02-12T06:19:22.336Z,11.60
2023-02-12T06:21:50.821Z,10.70
2023-02-12T06:24:19.678Z,11.10
2023-02-12T06:26:50.204Z,10.20
2023-02-12T06:29:22.062Z,11.80
2023-02-12T06:31:50.617Z,11.20
2023-02-12T06:34:19.430Z,10.70
2023-02-12T06:36:48.244Z,11.40
2023-02-12T06:39:17.268Z,11.70
2023-02-12T06:41:45.866Z,12.00
2023-02-12T06:44:14.397Z,12.70
2023-02-12T06:46:42.906Z,12.60
2023-02-12T06:49:13.089Z,11.50
2023-02-12T06:51:41.579Z,11.60
2023-02-12T06:54:14.531Z,11.20
2023-02-12T06:56:45.405Z,10.20
2023-02-12T06:59:15.571Z,12.50
2023-02-12T07:01:46.481Z,11.50
2023-02-12T07:04:16.057Z,12.00
2023-02-12T07:06:45.079Z,12.60
2023-02-12T07:09:14.131Z,12.90
2023-02-12T07:11:42.830Z,14.40
2023-02-12T07:14:15.987Z,14.60
2023-02-12T07:16:44.893Z,13.50
2023-02-12T07:19:14.673Z,14.10
2023-02-12T07:21:43.428Z,15.20
2023-02-12T07:24:19.897Z,14.60
2023-02-12T07:26:48.549Z,13.70
2023-02-12T07:29:17.400Z,14.90
2023-02-12T07:31:46.906Z,16.20
2023-02-12T07:34:15.505Z,16.20
2023-02-12T07:36:47.195Z,16.70
2023-02-12T07:39:16.277Z,14.00
2023-02-12T07:41:45.242Z,15.10
2023-02-12T07:44:16.299Z,19.40
2023-02-12T07:46:48.299Z,11.70
2023-02-12T07:49:22.001Z,12.50
2023-02-12T07:51:50.665Z,9.70
2023-02-12T07:54:19.510Z,7.30
2023-02-12T07:56:48.225Z,9.30
2023-02-12T07:59:18.459Z,11.60
2023-02-12T08:01:48.695Z,11.60
2023-02-12T08:04:19.448Z,7.20
2023-02-12T08:06:50.073Z,10.20
2023-02-12T08:09:25.346Z,10.90
2023-02-12T08:11:53.928Z,9.00
2023-02-12T08:14:23.102Z,8.60
2023-02-12T08:16:51.722Z,6.70
2023-02-12T08:19:24.926Z,11.70
2023-02-12T08:21:55.882Z,6.20
2023-02-12T08:24:25.133Z,13.70
2023-02-12T08:26:53.844Z,17.10
2023-02-12T08:29:25.638Z,8.40
2023-02-12T08:31:59.762Z,4.30
2023-02-12T08:34:30.608Z,6.30
2023-02-12T08:36:59.478Z,6.20
2023-02-12T08:39:29.338Z,5.80
2023-02-12T08:42:00.353Z,9.20
2023-02-12T08:44:29.623Z,4.80
2023-02-12T08:46:58.776Z,7.20
2023-02-12T08:49:29.173Z,3.90
2023-02-12T08:51:58.454Z,3.20
2023-02-12T08:54:30.103Z,3.40
2023-02-12T08:57:01.272Z,3.20
2023-02-12T08:59:30.035Z,2.80
2023-02-12T09:02:01.264Z,3.60
2023-02-12T09:04:31.499Z,4.90
2023-02-12T09:07:00.088Z,4.50
2023-02-12T09:09:28.647Z,3.00
2023-02-12T09:12:01.177Z,3.10
2023-02-12T09:14:30.349Z,3.90
2023-02-12T09:16:58.884Z,8.60
2023-02-12T09:19:27.766Z,6.50
2023-02-12T09:21:57.112Z,5.40
2023-02-12T09:24:27.981Z,3.70
2023-02-12T09:26:57.638Z,5.40
2023-02-12T09:29:26.120Z,3.40
2023-02-12T09:31:54.941Z,4.10
2023-02-12T09:34:25.076Z,17.20
2023-02-12T09:36:54.415Z,4.70
2023-02-12T09:39:23.579Z,8.80
2023-02-12T09:41:57.834Z,3.50
2023-02-12T09:44:38.212Z,3.80
2023-02-12T09:47:09.642Z,2.50
2023-02-12T09:50:18.507Z,3.10
2023-02-12T09:52:47.993Z,2.80
2023-02-12T09:55:17.230Z,2.40
2023-02-12T09:57:45.803Z,3.20
2023-02-12T10:00:31.916Z,2.60
2023-02-12T10:03:05.138Z,7.00
2023-02-12T10:05:42.264Z,9.40
2023-02-12T10:08:46.326Z,4.10
2023-02-12T10:11:18.410Z,8.60
2023-02-12T10:13:54.191Z,10.70
2023-02-12T10:16:44.250Z,24.30
2023-02-12T10:19:50.173Z,7.10
2023-02-12T10:22:25.399Z,3.00
2023-02-12T10:25:03.374Z,6.20
2023-02-12T10:27:46.409Z,2.00
2023-02-12T10:30:47.476Z,3.20
2023-02-12T10:33:22.126Z,23.50
2023-02-12T10:35:53.834Z,3.60
2023-02-12T10:38:26.374Z,1.60
2023-02-12T10:40:57.967Z,1.40
2023-02-12T10:43:26.658Z,2.20
2023-02-12T10:45:55.450Z,1.90
2023-02-12T10:48:37.001Z,3.10
2023-02-12T10:51:17.568Z,8.30
2023-02-12T10:53:46.498Z,6.50
2023-02-12T10:56:25.066Z,4.50
2023-02-12T10:58:56.128Z,4.40
2023-02-12T11:01:31.315Z,6.80
2023-02-12T11:04:01.848Z,3.50
2023-02-12T11:06:33.102Z,2.50
2023-02-12T11:09:01.886Z,4.40
2023-02-12T11:11:31.652Z,3.50
2023-02-12T11:14:04.186Z,4.50
2023-02-12T11:16:41.672Z,4.50
2023-02-12T11:19:22.216Z,3.70
2023-02-12T11:21:51.736Z,3.70
2023-02-12T11:24:38.390Z,3.60
2023-02-12T11:27:15.984Z,2.30
2023-02-12T11:29:49.171Z,2.10
2023-02-12T11:32:19.236Z,5.20
2023-02-12T11:35:10.630Z,5.90
2023-02-12T11:37:46.349Z,3.90
2023-02-12T11:40:23.706Z,9.30
2023-02-12T11:42:55.047Z,7.00
2023-02-12T11:45:28.578Z,4.00
2023-02-12T11:47:57.070Z,3.70
2023-02-12T11:50:28.638Z,3.10
2023-02-12T11:53:02.417Z,3.30
2023-02-12T11:55:36.347Z,2.20
2023-02-12T11:58:20.776Z,2.20
2023-02-12T12:01:08.190Z,1.80
2023-02-12T12:04:08.151Z,2.40
2023-02-12T12:07:20.547Z,3.30
2023-02-12T12:10:16.819Z,2.80
2023-02-12T12:12:57.802Z,3.20
2023-02-12T12:15:53.024Z,3.70
2023-02-12T12:19:03.305Z,6.90
2023-02-12T12:24:23.164Z,2.40
2023-02-12T12:27:03.536Z,1.60
2023-02-12T12:29:50.154Z,2.80
2023-02-12T12:32:18.887Z,1.70
2023-02-12T12:34:47.745Z,2.00
2023-02-12T12:37:33.677Z,3.70
2023-02-12T12:40:33.818Z,3.40
2023-02-12T12:43:11.052Z,4.50
2023-02-12T12:45:54.651Z,6.60
2023-02-12T12:48:32.174Z,5.90
2023-02-12T12:51:00.796Z,4.80
2023-02-12T12:53:48.047Z,3.20
2023-02-12T12:56:26.973Z,3.80
2023-02-12T12:59:13.651Z,9.70
2023-02-12T13:01:42.087Z,9.00
2023-02-12T13:04:23.001Z,9.30
2023-02-12T13:07:09.744Z,7.40
2023-02-12T13:09:57.686Z,6.00
2023-02-12T13:12:58.122Z,4.40
2023-02-12T13:15:46.144Z,3.90
2023-02-12T13:18:19.264Z,3.10
2023-02-12T13:20:59.136Z,4.80
2023-02-12T13:23:30.458Z,6.30
2023-02-12T13:26:02.196Z,3.10
2023-02-12T13:28:38.075Z,3.60
2023-02-12T13:31:32.022Z,3.90
2023-02-12T13:34:06.277Z,7.00
2023-02-12T13:36:36.623Z,8.00
2023-02-12T13:39:25.542Z,5.80
2023-02-12T13:42:27.438Z,2.90
2023-02-12T13:45:01.903Z,3.10
2023-02-12T13:47:34.398Z,2.60
2023-02-12T13:50:35.353Z,3.30
2023-02-12T13:53:17.342Z,2.00
2023-02-12T13:56:10.292Z,2.00
2023-02-12T13:58:50.702Z,1.90
2023-02-12T14:01:43.754Z,2.30
2023-02-12T14:04:24.954Z,3.70
2023-02-12T14:07:05.392Z,5.70
2023-02-12T14:09:47.027Z,6.80
2023-02-12T14:12:26.129Z,7.10
2023-02-12T14:14:57.107Z,4.20
2023-02-12T14:17:29.282Z,4.60
2023-02-12T14:20:21.158Z,3.00
2023-02-12T14:22:50.077Z,2.60
2023-02-12T14:25:24.320Z,2.30
2023-02-12T14:28:07.976Z,2.70
2023-02-12T14:30:39.896Z,2.70
2023-02-12T14:33:21.736Z,3.10
2023-02-12T14:36:10.525Z,5.30
2023-02-12T14:38:47.600Z,4.60
2023-02-12T14:41:34.310Z,4.40
2023-02-12T14:44:27.740Z,3.20
2023-02-12T14:47:00.628Z,2.00
2023-02-12T14:49:34.909Z,2.20
2023-02-12T14:52:14.988Z,2.00
2023-02-12T14:54:43.415Z,3.80
2023-02-12T14:57:27.190Z,1.90
2023-02-12T14:59:59.958Z,2.00
2023-02-12T15:02:29.690Z,1.70
2023-02-12T15:05:03.042Z,3.40
2023-02-12T15:07:43.973Z,4.40
2023-02-12T15:10:34.254Z,3.60
2023-02-12T15:13:02.689Z,4.90
2023-02-12T15:15:47.916Z,3.30
2023-02-12T15:18:22.213Z,2.60
2023-02-12T15:20:59.832Z,3.20
2023-02-12T15:23:37.789Z,2.80
2023-02-12T15:26:07.467Z,2.80
2023-02-12T15:28:37.779Z,7.30
2023-02-12T15:31:10.875Z,4.90
2023-02-12T15:33:46.469Z,3.30
2023-02-12T15:36:19.577Z,4.90
2023-02-12T15:38:53.008Z,6.70
2023-02-12T15:41:33.967Z,3.90
2023-02-12T15:44:04.936Z,2.80
2023-02-12T15:46:34.172Z,6.30
2023-02-12T15:49:19.181Z,3.80
2023-02-12T15:51:47.725Z,5.50
2023-02-12T15:54:16.702Z,5.20
2023-02-12T15:56:45.108Z,4.40
2023-02-12T15:59:22.534Z,4.80
2023-02-12T16:02:30.172Z,3.30
2023-02-12T16:04:59.208Z,2.50
2023-02-12T16:07:29.903Z,3.30
2023-02-12T16:10:00.984Z,3.80
2023-02-12T16:12:31.668Z,3.90
2023-02-12T16:15:03.682Z,9.50
2023-02-12T16:17:37.187Z,10.60
2023-02-12T16:20:20.903Z,8.40
2023-02-12T16:22:50.063Z,6.50
2023-02-12T16:25:32.747Z,12.30
2023-02-12T16:28:21.260Z,6.70
2023-02-12T16:30:50.021Z,9.10
2023-02-12T16:33:59.546Z,8.90
2023-02-12T16:36:30.707Z,8.00
2023-02-12T16:39:04.734Z,6.90
2023-02-12T16:41:34.499Z,9.50
2023-02-12T16:44:03.513Z,7.20
2023-02-12T16:46:33.559Z,6.80
2023-02-12T16:49:02.148Z,4.70
2023-02-12T16:51:32.553Z,5.80
2023-02-12T16:54:03.014Z,5.90
2023-02-12T16:56:34.554Z,8.30
2023-02-12T16:59:03.180Z,5.70
2023-02-12T17:01:34.148Z,3.60
2023-02-12T17:04:08.163Z,4.20
2023-02-12T17:06:36.715Z,4.20
2023-02-12T17:09:05.432Z,4.20
2023-02-12T17:11:33.910Z,4.70
2023-02-12T17:14:02.533Z,5.10
2023-02-12T17:16:32.328Z,6.40
2023-02-12T17:19:06.988Z,6.00
2023-02-12T17:21:39.870Z,4.60
2023-02-12T17:24:22.496Z,3.60
2023-02-12T17:26:51.480Z,3.80
2023-02-12T17:29:21.047Z,6.30
2023-02-12T17:31:50.507Z,4.80
2023-02-12T17:34:19.200Z,4.90
2023-02-12T17:36:48.039Z,4.90
2023-02-12T17:39:16.895Z,4.00
2023-02-12T17:41:46.487Z,4.00
2023-02-12T17:44:15.847Z,3.90
2023-02-12T17:46:45.561Z,3.40
2023-02-12T17:49:13.996Z,3.70
2023-02-12T17:51:43.644Z,5.80
2023-02-12T17:54:12.651Z,4.30
2023-02-12T17:56:41.818Z,2.40
2023-02-12T17:59:10.514Z,3.00
2023-02-12T18:01:40.621Z,3.20
2023-02-12T18:04:09.662Z,3.50
2023-02-12T18:06:39.334Z,5.10
2023-02-12T18:09:07.786Z,4.40
2023-02-12T18:11:38.255Z,4.40
2023-02-12T18:14:06.714Z,7.10
2023-02-12T18:16:36.734Z,4.50
2023-02-12T18:19:06.061Z,4.20
2023-02-12T18:21:35.261Z,4.60
2023-02-12T18:24:04.286Z,6.50
2023-02-12T18:26:33.190Z,5.40
2023-02-12T18:29:01.975Z,7.90
2023-02-12T18:31:30.891Z,6.30
2023-02-12T18:34:00.220Z,9.10
2023-02-12T18:36:30.442Z,8.90
2023-02-12T18:39:02.732Z,4.60
2023-02-12T18:41:32.336Z,4.00
2023-02-12T18:44:01.225Z,3.40
2023-02-12T18:46:30.976Z,6.60
2023-02-12T18:48:59.629Z,5.50
2023-02-12T18:51:29.879Z,4.50
2023-02-12T18:54:03.049Z,5.00
2023-02-12T18:56:34.549Z,3.70
2023-02-12T18:59:05.276Z,5.90
2023-02-12T19:01:35.052Z,5.10
2023-02-12T19:04:04.885Z,5.30
2023-02-12T19:06:34.617Z,5.60
2023-02-12T19:09:05.015Z,4.10
2023-02-12T19:11:35.154Z,3.60
2023-02-12T19:14:03.832Z,3.90
2023-02-12T19:16:33.759Z,4.20
2023-02-12T19:19:03.234Z,3.40
2023-02-12T19:21:32.700Z,4.10
2023-02-12T19:24:02.244Z,3.00
2023-02-12T19:26:31.893Z,3.40
2023-02-12T19:29:01.323Z,3.10
2023-02-12T19:31:41.189Z,3.60
2023-02-12T19:34:17.316Z,2.80
2023-02-12T19:36:46.443Z,3.00
2023-02-12T19:39:16.973Z,3.90
2023-02-12T19:41:47.267Z,4.00
2023-02-12T19:44:20.707Z,2.90
2023-02-12T19:46:49.242Z,2.70
2023-02-12T19:49:20.238Z,3.00
2023-02-12T19:51:48.970Z,3.20
2023-02-12T19:54:18.188Z,3.00
2023-02-12T19:56:46.714Z,2.40
2023-02-12T19:59:17.575Z,2.40
2023-02-12T20:01:47.184Z,2.30
2023-02-12T20:04:18.916Z,2.70
2023-02-12T20:06:47.760Z,2.70
2023-02-12T20:09:17.067Z,3.20
2023-02-12T20:11:45.626Z,11.50
2023-02-12T20:14:14.372Z,12.00
2023-02-12T20:16:44.942Z,9.60
2023-02-12T20:19:25.039Z,9.80
2023-02-12T20:21:56.135Z,5.50
2023-02-12T20:24:29.935Z,3.80
2023-02-12T20:26:59.748Z,2.90
2023-02-12T20:29:29.075Z,3.90
2023-02-12T20:31:57.686Z,11.50
2023-02-12T20:34:26.451Z,12.60
2023-02-12T20:36:55.081Z,9.00
2023-02-12T20:39:24.621Z,6.40
2023-02-12T20:41:54.454Z,5.80
2023-02-12T20:44:23.310Z,4.40
2023-02-12T20:46:56.411Z,6.70
2023-02-12T20:49:26.344Z,3.90
2023-02-12T20:51:54.971Z,3.80
2023-02-12T20:54:26.177Z,5.50
2023-02-12T20:56:55.289Z,4.90
2023-02-12T20:59:23.769Z,7.50
2023-02-12T21:01:52.746Z,3.20
2023-02-12T21:04:21.544Z,5.70
2023-02-12T21:06:50.060Z,5.10
2023-02-12T21:09:20.096Z,5.30
2023-02-12T21:11:49.736Z,5.80
2023-02-12T21:14:22.330Z,8.10
2023-02-12T21:16:55.826Z,6.20
2023-02-12T21:19:25.940Z,6.40
2023-02-12T21:21:54.864Z,5.60
2023-02-12T21:24:26.423Z,6.50
2023-02-12T21:26:55.578Z,5.00
2023-02-12T21:29:27.739Z,4.60
2023-02-12T21:31:57.120Z,3.60
2023-02-12T21:34:25.858Z,3.40
2023-02-12T21:36:55.584Z,3.90
2023-02-12T21:39:27.783Z,3.50
2023-02-12T21:42:03.206Z,2.80
2023-02-12T21:44:35.549Z,3.00
2023-02-12T21:47:04.699Z,2.80
2023-02-12T21:49:33.679Z,2.60
2023-02-12T21:52:06.966Z,2.60
2023-02-12T21:54:35.537Z,3.40
2023-02-12T21:57:04.076Z,3.40
2023-02-12T21:59:32.748Z,3.50
2023-02-12T22:02:02.323Z,2.60
2023-02-12T22:04:33.528Z,3.70
2023-02-12T22:07:03.775Z,4.20
2023-02-12T22:09:35.638Z,4.00
2023-02-12T22:12:05.435Z,3.90
2023-02-12T22:14:37.300Z,4.20
2023-02-12T22:17:06.107Z,4.20
2023-02-12T22:19:35.138Z,3.90
2023-02-12T22:22:03.885Z,2.80
2023-02-12T22:24:32.876Z,2.00
2023-02-12T22:27:01.261Z,2.20
2023-02-12T22:29:30.114Z,2.10
2023-02-12T22:31:58.745Z,2.00
2023-02-12T22:34:27.668Z,2.30
2023-02-12T22:36:56.112Z,2.10
2023-02-12T22:39:24.769Z,2.00
2023-02-12T22:41:53.630Z,2.00
2023-02-12T22:44:22.527Z,2.40
2023-02-12T22:46:51.204Z,2.30
2023-02-12T22:49:20.087Z,2.30
2023-02-12T22:51:48.550Z,2.60
2023-02-12T22:54:18.436Z,2.30
2023-02-12T22:56:50.271Z,3.20
2023-02-12T22:59:18.867Z,2.80
2023-02-12T23:01:47.747Z,3.40
2023-02-12T23:04:18.073Z,2.90
2023-02-12T23:06:46.756Z,2.50
2023-02-12T23:09:19.293Z,2.40
2023-02-12T23:11:48.265Z,2.80
2023-02-12T23:14:17.990Z,5.10
2023-02-12T23:16:47.919Z,3.40
2023-02-12T23:19:16.442Z,3.00
2023-02-12T23:21:45.245Z,4.10
2023-02-12T23:24:15.261Z,3.20
2023-02-12T23:26:44.743Z,2.90
2023-02-12T23:29:13.332Z,2.60
2023-02-12T23:31:41.978Z,2.50
2023-02-12T23:34:10.839Z,1.90
2023-02-12T23:36:39.305Z,1.80
2023-02-12T23:39:09.652Z,2.30
2023-02-12T23:41:38.393Z,2.60
2023-02-12T23:44:07.478Z,2.40
2023-02-12T23:46:36.034Z,2.40
2023-02-12T23:49:04.888Z,1.80
2023-02-12T23:51:33.542Z,2.10
2023-02-12T23:54:03.284Z,2.50
2023-02-12T23:56:32.372Z,3.30
2023-02-12T23:59:01.803Z,2.70
